createdAt,value
2022-12-12T00:00:06.566Z,30.00
2022-12-12T00:02:40.601Z,29.55
2022-12-12T00:05:09.315Z,28.75
2022-12-12T00:07:36.107Z,32.45
2022-12-12T00:10:03.147Z,31.77
2022-12-12T00:12:29.657Z,29.83
2022-12-12T00:14:56.494Z,28.95
2022-12-12T00:17:23.037Z,31.42
2022-12-12T00:19:49.650Z,29.13
2022-12-12T00:22:16.286Z,27.75
2022-12-12T00:24:42.848Z,27.48
2022-12-12T00:27:09.372Z,31.85
2022-12-12T00:29:36.023Z,30.55
2022-12-12T00:32:02.625Z,29.50
2022-12-12T00:34:29.200Z,29.25
2022-12-12T00:36:55.740Z,30.55
2022-12-12T00:39:23.770Z,30.92
2022-12-12T00:41:50.615Z,31.17
2022-12-12T00:44:17.279Z,29.67
2022-12-12T00:46:43.870Z,31.13
2022-12-12T00:49:10.390Z,32.92
2022-12-12T00:51:36.880Z,31.25
2022-12-12T00:54:03.417Z,31.40
2022-12-12T00:56:30.848Z,33.92
2022-12-12T00:58:57.459Z,31.13
2022-12-12T01:01:27.474Z,30.58
2022-12-12T01:03:54.286Z,30.70
2022-12-12T01:06:21.994Z,28.73
2022-12-12T01:08:48.854Z,31.27
2022-12-12T01:11:17.669Z,30.27
2022-12-12T01:13:44.538Z,31.70
2022-12-12T01:16:12.785Z,30.42
2022-12-12T01:18:40.285Z,32.08
2022-12-12T01:21:13.460Z,29.73
2022-12-12T01:23:40.302Z,32.60
2022-12-12T01:26:13.986Z,33.55
2022-12-12T01:28:40.909Z,28.55
2022-12-12T01:31:07.607Z,34.88
2022-12-12T01:33:34.389Z,30.35
2022-12-12T01:36:00.892Z,29.55
2022-12-12T01:38:27.651Z,32.40
2022-12-12T01:40:54.891Z,37.47
2022-12-12T01:43:23.300Z,31.17
2022-12-12T01:45:59.381Z,30.42
2022-12-12T01:48:34.959Z,31.92
2022-12-12T01:51:06.625Z,32.10
2022-12-12T01:53:33.769Z,31.40
2022-12-12T01:56:06.357Z,30.65
2022-12-12T01:58:34.051Z,31.67
2022-12-12T02:01:01.576Z,32.88
2022-12-12T02:03:28.234Z,31.58
2022-12-12T02:06:02.286Z,27.70
2022-12-12T02:08:30.228Z,31.58
2022-12-12T02:10:56.953Z,32.30
2022-12-12T02:13:26.632Z,30.67
2022-12-12T02:16:08.078Z,32.10
2022-12-12T02:19:09.663Z,30.77
2022-12-12T02:21:56.413Z,31.92
2022-12-12T02:24:52.409Z,32.03
2022-12-12T02:27:52.887Z,31.75
2022-12-12T02:30:31.204Z,29.52
2022-12-12T02:33:30.465Z,33.63
2022-12-12T02:36:21.730Z,33.25
2022-12-12T02:38:54.012Z,31.52
2022-12-12T02:41:35.501Z,32.13
2022-12-12T02:44:13.624Z,31.48
2022-12-12T02:46:55.737Z,31.88
2022-12-12T02:49:34.211Z,30.77
2022-12-12T02:52:01.982Z,31.88
2022-12-12T02:54:28.576Z,27.67
2022-12-12T02:57:00.085Z,33.47
2022-12-12T02:59:34.106Z,32.70
2022-12-12T03:02:31.593Z,33.00
2022-12-12T03:05:49.537Z,30.85
2022-12-12T03:08:37.857Z,29.88
2022-12-12T03:11:14.727Z,30.77
2022-12-12T03:13:51.620Z,31.30
2022-12-12T03:16:24.026Z,33.53
2022-12-12T03:18:59.680Z,30.50
2022-12-12T03:21:35.368Z,31.63
2022-12-12T03:24:29.196Z,30.80
2022-12-12T03:27:07.515Z,31.95
2022-12-12T03:29:55.327Z,31.90
2022-12-12T03:32:27.703Z,32.50
2022-12-12T03:35:03.216Z,31.10
2022-12-12T03:37:39.184Z,29.67
2022-12-12T03:40:10.264Z,32.45
2022-12-12T03:42:45.897Z,33.28
2022-12-12T03:45:27.282Z,31.95
2022-12-12T03:48:28.701Z,33.75
2022-12-12T03:51:02.423Z,33.72
2022-12-12T03:53:38.674Z,35.20
2022-12-12T03:56:19.888Z,31.58
2022-12-12T03:58:53.191Z,33.33
2022-12-12T04:01:23.692Z,35.92
2022-12-12T04:04:05.896Z,34.33
2022-12-12T04:06:42.996Z,33.55
2022-12-12T04:09:34.318Z,32.95
2022-12-12T04:12:38.410Z,32.90
2022-12-12T04:15:11.273Z,34.47
2022-12-12T04:17:43.453Z,31.88
2022-12-12T04:20:44.873Z,35.47
2022-12-12T04:23:44.003Z,31.45
2022-12-12T04:26:41.725Z,33.05
2022-12-12T04:29:30.452Z,31.33
2022-12-12T04:32:25.081Z,30.33
2022-12-12T04:35:00.158Z,31.75
2022-12-12T04:37:42.356Z,32.50
2022-12-12T04:40:13.569Z,31.58
2022-12-12T04:42:45.211Z,32.03
2022-12-12T04:45:16.758Z,33.78
2022-12-12T04:47:46.769Z,30.13
2022-12-12T04:50:14.052Z,34.30
2022-12-12T04:52:42.920Z,34.33
2022-12-12T04:55:24.385Z,32.85
2022-12-12T04:57:54.710Z,31.88
2022-12-12T05:00:23.030Z,30.63
2022-12-12T05:02:57.764Z,35.80
2022-12-12T05:05:38.812Z,32.72
2022-12-12T05:08:22.697Z,32.15
2022-12-12T05:10:56.317Z,30.30
2022-12-12T05:13:29.556Z,32.25
2022-12-12T05:15:58.596Z,33.80
2022-12-12T05:18:25.382Z,34.15
2022-12-12T05:20:52.107Z,33.17
2022-12-12T05:23:18.887Z,33.28
2022-12-12T05:25:45.671Z,32.95
2022-12-12T05:28:12.289Z,31.27
2022-12-12T05:30:38.954Z,32.45
2022-12-12T05:33:05.776Z,32.08
2022-12-12T05:35:33.899Z,31.55
2022-12-12T05:38:01.786Z,31.45
2022-12-12T05:40:28.573Z,29.27
2022-12-12T05:42:55.177Z,30.27
2022-12-12T05:45:21.945Z,30.67
2022-12-12T05:47:48.686Z,29.40
2022-12-12T05:50:15.291Z,29.83
2022-12-12T05:52:41.830Z,30.55
2022-12-12T05:55:08.598Z,28.60
2022-12-12T05:57:35.180Z,26.75
2022-12-12T06:00:02.017Z,29.38
2022-12-12T06:02:31.698Z,33.70
2022-12-12T06:04:58.387Z,31.92
2022-12-12T06:07:24.898Z,30.23
2022-12-12T06:09:51.420Z,31.65
2022-12-12T06:12:18.076Z,30.83
2022-12-12T06:14:44.587Z,28.73
2022-12-12T06:17:11.192Z,30.52
2022-12-12T06:19:37.738Z,27.50
2022-12-12T06:22:04.376Z,28.05
2022-12-12T06:24:30.936Z,26.20
2022-12-12T06:26:57.545Z,29.50
2022-12-12T06:29:24.223Z,27.50
2022-12-12T06:31:50.761Z,30.52
2022-12-12T06:34:17.326Z,31.23
2022-12-12T06:36:43.925Z,27.00
2022-12-12T06:39:10.473Z,27.33
2022-12-12T06:41:37.228Z,27.88
2022-12-12T06:44:04.417Z,28.98
2022-12-12T06:46:31.142Z,27.08
2022-12-12T06:48:58.580Z,28.10
2022-12-12T06:51:29.027Z,31.73
2022-12-12T06:53:55.963Z,35.17
2022-12-12T06:56:24.875Z,35.92
2022-12-12T06:58:52.927Z,32.78
2022-12-12T07:01:21.640Z,31.00
2022-12-12T07:03:52.440Z,31.75
2022-12-12T07:06:21.456Z,31.40
2022-12-12T07:08:48.080Z,32.38
2022-12-12T07:11:17.794Z,37.50
2022-12-12T07:13:44.695Z,32.55
2022-12-12T07:16:11.931Z,32.35
2022-12-12T07:18:38.569Z,36.72
2022-12-12T07:21:07.131Z,33.42
2022-12-12T07:23:33.969Z,43.28
2022-12-12T07:26:09.141Z,37.85
2022-12-12T07:28:38.059Z,42.72
2022-12-12T07:31:13.081Z,33.75
2022-12-12T07:33:44.059Z,31.67
2022-12-12T07:36:12.300Z,31.70
2022-12-12T07:38:39.648Z,32.35
2022-12-12T07:41:09.302Z,35.47
2022-12-12T07:43:42.891Z,39.42
2022-12-12T07:46:11.693Z,38.40
2022-12-12T07:48:38.330Z,37.50
2022-12-12T07:51:05.121Z,32.92
2022-12-12T07:53:31.696Z,31.48
2022-12-12T07:55:58.439Z,29.13
2022-12-12T07:58:25.048Z,28.38
2022-12-12T08:00:51.669Z,29.05
2022-12-12T08:03:18.189Z,27.88
2022-12-12T08:05:44.754Z,31.23
2022-12-12T08:08:11.544Z,29.58
2022-12-12T08:10:39.775Z,45.00
2022-12-12T08:13:06.713Z,33.33
2022-12-12T08:15:33.516Z,34.30
2022-12-12T08:18:00.032Z,35.95
2022-12-12T08:20:26.730Z,31.65
2022-12-12T08:22:53.329Z,33.78
2022-12-12T08:25:19.949Z,29.88
2022-12-12T08:27:46.670Z,28.75
2022-12-12T08:30:13.471Z,31.40
2022-12-12T08:32:39.979Z,33.65
2022-12-12T08:35:06.966Z,30.25
2022-12-12T08:37:33.521Z,31.48
2022-12-12T08:40:00.097Z,33.47
2022-12-12T08:42:26.757Z,32.10
2022-12-12T08:44:53.303Z,32.35
2022-12-12T08:47:19.848Z,29.20
2022-12-12T08:49:46.339Z,28.88
2022-12-12T08:52:12.919Z,33.22
2022-12-12T08:54:39.735Z,25.88
2022-12-12T08:57:06.276Z,24.98
2022-12-12T08:59:32.854Z,26.58
2022-12-12T09:01:59.488Z,27.23
2022-12-12T09:04:26.102Z,27.00
2022-12-12T09:06:52.933Z,28.25
2022-12-12T09:09:19.506Z,27.05
2022-12-12T09:11:46.237Z,25.50
2022-12-12T09:14:12.818Z,25.98
2022-12-12T09:16:39.474Z,24.50
2022-12-12T09:19:06.192Z,32.90
2022-12-12T09:21:32.795Z,24.63
2022-12-12T09:24:00.045Z,26.08
2022-12-12T09:26:27.596Z,24.15
2022-12-12T09:28:54.222Z,35.65
2022-12-12T09:31:21.587Z,25.98
2022-12-12T09:33:48.999Z,23.98
2022-12-12T09:36:15.681Z,26.35
2022-12-12T09:38:42.787Z,27.65
2022-12-12T09:41:09.247Z,26.95
2022-12-12T09:44:09.753Z,27.48
2022-12-12T09:46:39.633Z,25.58
2022-12-12T09:49:15.055Z,26.15
2022-12-12T09:51:49.372Z,25.55
2022-12-12T09:54:20.571Z,24.65
2022-12-12T09:56:56.377Z,25.50
2022-12-12T09:59:43.136Z,23.70
2022-12-12T10:02:09.680Z,25.55
2022-12-12T10:05:07.307Z,23.63
2022-12-12T10:07:44.019Z,24.98
2022-12-12T10:10:24.554Z,25.35
2022-12-12T10:12:52.123Z,22.73
2022-12-12T10:15:27.181Z,25.10
2022-12-12T10:17:56.884Z,22.15
2022-12-12T10:20:27.592Z,23.65
2022-12-12T10:23:12.677Z,19.85
2022-12-12T10:25:56.691Z,20.52
2022-12-12T10:31:06.318Z,20.90
2022-12-12T10:33:44.713Z,24.15
2022-12-12T10:36:29.220Z,21.05
2022-12-12T10:39:14.215Z,22.27
2022-12-12T10:42:01.889Z,21.15
2022-12-12T10:44:50.277Z,19.65
2022-12-12T10:47:16.915Z,20.55
2022-12-12T10:49:43.451Z,19.70
2022-12-12T10:52:22.030Z,21.02
2022-12-12T10:54:52.485Z,22.77
2022-12-12T10:57:27.624Z,21.90
2022-12-12T10:59:57.377Z,20.70
2022-12-12T11:02:39.164Z,22.42
2022-12-12T11:05:05.765Z,22.10
2022-12-12T11:07:38.809Z,21.30
2022-12-12T11:10:34.361Z,19.42
2022-12-12T11:13:13.598Z,27.83
2022-12-12T11:15:51.005Z,21.73
2022-12-12T11:18:23.381Z,21.15
2022-12-12T11:21:11.990Z,23.25
2022-12-12T11:23:41.149Z,21.73
2022-12-12T11:26:18.930Z,26.77
2022-12-12T11:28:54.077Z,27.70
2022-12-12T11:31:24.664Z,25.83
2022-12-12T11:33:57.533Z,37.13
2022-12-12T11:36:38.226Z,24.17
2022-12-12T11:39:36.495Z,28.52
2022-12-12T11:42:17.520Z,22.25
2022-12-12T11:44:45.142Z,20.70
2022-12-12T11:47:38.678Z,23.75
2022-12-12T11:50:22.655Z,20.95
2022-12-12T11:52:52.050Z,21.75
2022-12-12T11:55:41.866Z,20.83
2022-12-12T11:58:14.914Z,20.63
2022-12-12T12:00:54.968Z,19.58
2022-12-12T12:03:27.053Z,21.80
2022-12-12T12:06:23.871Z,20.23
2022-12-12T12:09:17.405Z,20.48
2022-12-12T12:12:08.732Z,22.38
2022-12-12T12:14:50.745Z,22.02
2022-12-12T12:17:44.535Z,21.52
2022-12-12T12:20:36.022Z,24.00
2022-12-12T12:23:21.386Z,26.38
2022-12-12T12:25:53.920Z,25.00
2022-12-12T12:28:51.200Z,25.50
2022-12-12T12:31:55.153Z,27.65
2022-12-12T12:34:25.040Z,25.73
2022-12-12T12:36:59.912Z,28.95
2022-12-12T12:39:58.763Z,27.13
2022-12-12T12:42:28.266Z,26.40
2022-12-12T12:45:27.640Z,27.55
2022-12-12T12:48:13.401Z,26.13
2022-12-12T12:50:39.859Z,25.45
2022-12-12T12:53:35.293Z,24.33
2022-12-12T12:56:13.982Z,25.15
2022-12-12T12:58:45.463Z,25.20
2022-12-12T13:01:23.127Z,27.15
2022-12-12T13:04:12.605Z,25.65
2022-12-12T13:06:47.974Z,25.15
2022-12-12T13:09:48.667Z,23.15
2022-12-12T13:12:37.222Z,24.58
2022-12-12T13:15:22.394Z,25.73
2022-12-12T13:18:10.605Z,22.98
2022-12-12T13:20:43.312Z,23.67
2022-12-12T13:23:17.935Z,23.83
2022-12-12T13:26:00.991Z,23.77
2022-12-12T13:28:34.242Z,26.85
2022-12-12T13:31:28.105Z,23.35
2022-12-12T13:34:04.861Z,19.70
2022-12-12T13:36:38.357Z,28.02
2022-12-12T13:39:07.397Z,22.50
2022-12-12T13:42:01.228Z,24.83
2022-12-12T13:44:49.566Z,25.75
2022-12-12T13:47:22.144Z,26.23
2022-12-12T13:50:09.975Z,26.05
2022-12-12T13:52:43.781Z,28.83
2022-12-12T13:55:13.091Z,26.38
2022-12-12T13:58:08.066Z,28.52
2022-12-12T14:00:39.705Z,29.83
2022-12-12T14:03:12.473Z,30.33
2022-12-12T14:05:43.021Z,36.03
2022-12-12T14:08:12.357Z,31.05
2022-12-12T14:10:49.414Z,32.28
2022-12-12T14:13:17.711Z,35.15
2022-12-12T14:15:46.617Z,31.05
2022-12-12T14:18:27.105Z,32.58
2022-12-12T14:21:16.692Z,34.40
2022-12-12T14:23:45.652Z,37.45
2022-12-12T14:26:27.467Z,34.05
2022-12-12T14:29:18.675Z,31.90
2022-12-12T14:32:14.906Z,32.97
2022-12-12T14:34:50.174Z,39.25
2022-12-12T14:37:35.862Z,32.08
2022-12-12T14:40:18.454Z,33.95
2022-12-12T14:43:18.725Z,36.10
2022-12-12T14:45:50.441Z,33.47
2022-12-12T14:48:30.086Z,30.55
2022-12-12T14:51:12.764Z,33.65
2022-12-12T14:53:43.515Z,32.92
2022-12-12T14:56:16.471Z,34.92
2022-12-12T14:58:47.115Z,32.88
2022-12-12T15:01:16.906Z,31.98
2022-12-12T15:03:50.924Z,38.80
2022-12-12T15:06:23.735Z,37.67
2022-12-12T15:08:52.322Z,44.30
2022-12-12T15:11:30.453Z,50.67
2022-12-12T15:13:59.556Z,44.03
2022-12-12T15:16:48.994Z,38.00
2022-12-12T15:19:19.332Z,37.42
2022-12-12T15:21:47.090Z,37.78
2022-12-12T15:24:20.946Z,35.72
2022-12-12T15:26:49.002Z,34.63
2022-12-12T15:29:22.552Z,38.45
2022-12-12T15:32:02.282Z,32.83
2022-12-12T15:34:42.648Z,34.58
2022-12-12T15:37:30.130Z,35.65
2022-12-12T15:40:01.562Z,41.50
2022-12-12T15:42:29.057Z,46.33
2022-12-12T15:44:56.264Z,46.92
2022-12-12T15:47:22.874Z,47.83
2022-12-12T15:49:51.726Z,56.13
2022-12-12T15:52:30.342Z,47.17
2022-12-12T15:54:58.954Z,45.83
2022-12-12T15:57:31.385Z,47.60
2022-12-12T16:00:05.377Z,46.92
2022-12-12T16:02:35.414Z,47.50
2022-12-12T16:05:19.624Z,56.17
2022-12-12T16:07:46.155Z,49.50
2022-12-12T16:10:15.782Z,52.38
2022-12-12T16:13:14.339Z,51.50
2022-12-12T16:15:40.832Z,48.45
2022-12-12T16:18:17.720Z,44.17
2022-12-12T16:20:53.846Z,45.63
2022-12-12T16:23:41.340Z,40.85
2022-12-12T16:26:11.021Z,44.20
2022-12-12T16:28:37.788Z,45.03
2022-12-12T16:31:15.960Z,43.92
2022-12-12T16:33:43.182Z,47.05
2022-12-12T16:36:14.902Z,46.25
2022-12-12T16:38:43.629Z,46.03
2022-12-12T16:41:17.030Z,45.45
2022-12-12T16:43:44.768Z,47.70
2022-12-12T16:46:31.562Z,43.72
2022-12-12T16:49:04.262Z,44.90
2022-12-12T16:51:33.598Z,42.77
2022-12-12T16:54:00.619Z,42.92
2022-12-12T16:56:27.270Z,41.45
2022-12-12T16:58:56.035Z,46.30
2022-12-12T17:01:23.139Z,44.72
2022-12-12T17:03:49.904Z,46.30
2022-12-12T17:06:16.514Z,44.38
2022-12-12T17:08:43.056Z,47.33
2022-12-12T17:11:11.180Z,43.50
2022-12-12T17:13:42.734Z,45.22
2022-12-12T17:16:09.493Z,47.47
2022-12-12T17:18:36.489Z,44.55
2022-12-12T17:21:03.051Z,48.88
2022-12-12T17:23:30.075Z,47.65
2022-12-12T17:26:03.147Z,46.83
2022-12-12T17:28:32.446Z,48.80
2022-12-12T17:30:59.098Z,48.97
2022-12-12T17:33:26.096Z,50.55
2022-12-12T17:36:01.087Z,52.58
2022-12-12T17:38:27.704Z,52.85
2022-12-12T17:40:56.647Z,54.15
2022-12-12T17:43:24.699Z,58.25
2022-12-12T17:46:02.875Z,64.50
2022-12-12T17:48:30.770Z,65.93
2022-12-12T17:50:59.205Z,69.35
2022-12-12T17:53:26.511Z,68.10
2022-12-12T17:56:01.659Z,67.45
2022-12-12T17:58:36.516Z,70.18
2022-12-12T18:01:16.050Z,70.75
2022-12-12T18:03:43.631Z,62.67
2022-12-12T18:06:10.500Z,68.90
2022-12-12T18:08:38.075Z,69.93
2022-12-12T18:11:09.595Z,66.28
2022-12-12T18:13:38.700Z,59.90
2022-12-12T18:16:06.924Z,57.85
2022-12-12T18:18:34.147Z,60.13
2022-12-12T18:21:10.550Z,54.85
2022-12-12T18:23:39.922Z,58.50
2022-12-12T18:26:17.243Z,55.17
2022-12-12T18:28:49.826Z,54.75
2022-12-12T18:31:16.612Z,60.28
2022-12-12T18:33:43.506Z,59.78
2022-12-12T18:36:14.762Z,63.67
2022-12-12T18:38:47.421Z,63.25
2022-12-12T18:41:15.057Z,64.00
2022-12-12T18:43:41.765Z,66.55
2022-12-12T18:46:11.331Z,68.97
2022-12-12T18:48:40.324Z,70.18
2022-12-12T18:51:09.464Z,67.53
2022-12-12T18:53:36.682Z,69.28
2022-12-12T18:56:11.147Z,61.88
2022-12-12T18:58:38.473Z,59.35
2022-12-12T19:01:07.155Z,55.30
2022-12-12T19:03:34.914Z,58.72
2022-12-12T19:06:10.527Z,56.47
2022-12-12T19:08:37.574Z,53.13
2022-12-12T19:11:04.420Z,56.38
2022-12-12T19:13:31.309Z,56.15
2022-12-12T19:16:07.720Z,54.42
2022-12-12T19:18:34.765Z,54.22
2022-12-12T19:21:24.303Z,51.10
2022-12-12T19:23:51.607Z,51.53
2022-12-12T19:26:27.823Z,54.83
2022-12-12T19:28:59.869Z,54.17
2022-12-12T19:31:26.471Z,56.58
2022-12-12T19:33:53.651Z,57.25
2022-12-12T19:36:23.128Z,54.63
2022-12-12T19:38:50.521Z,53.65
2022-12-12T19:41:19.053Z,59.03
2022-12-12T19:43:48.251Z,73.15
2022-12-12T19:46:26.340Z,70.15
2022-12-12T19:48:58.186Z,76.82
2022-12-12T19:51:26.471Z,70.18
2022-12-12T19:53:57.588Z,66.55
2022-12-12T19:56:30.859Z,61.25
2022-12-12T19:58:58.752Z,54.90
2022-12-12T20:01:34.280Z,52.55
2022-12-12T20:04:05.382Z,48.53
2022-12-12T20:06:46.951Z,47.72
2022-12-12T20:09:18.565Z,48.90
2022-12-12T20:11:45.561Z,46.13
2022-12-12T20:14:17.871Z,47.78
2022-12-12T20:16:45.067Z,49.92
2022-12-12T20:19:12.585Z,48.58
2022-12-12T20:24:31.418Z,43.15
2022-12-12T20:26:59.560Z,43.70
2022-12-12T20:29:26.730Z,41.08
2022-12-12T20:31:53.300Z,42.58
2022-12-12T20:34:24.668Z,43.30
2022-12-12T20:36:52.360Z,39.83
2022-12-12T20:39:21.804Z,44.40
2022-12-12T20:41:50.233Z,40.17
2022-12-12T20:44:16.966Z,40.15
2022-12-12T20:46:45.927Z,42.47
2022-12-12T20:49:15.804Z,41.53
2022-12-12T20:51:58.768Z,37.22
2022-12-12T20:54:27.794Z,44.05
2022-12-12T20:56:54.851Z,40.45
2022-12-12T20:59:21.570Z,39.60
2022-12-12T21:01:48.235Z,40.35
2022-12-12T21:04:15.415Z,40.33
2022-12-12T21:06:44.548Z,41.85
2022-12-12T21:09:13.917Z,38.92
2022-12-12T21:11:42.977Z,43.78
2022-12-12T21:14:09.705Z,42.95
2022-12-12T21:16:38.615Z,45.55
2022-12-12T21:19:08.585Z,43.35
2022-12-12T21:21:35.215Z,49.67
2022-12-12T21:24:02.387Z,45.75
2022-12-12T21:26:30.887Z,46.47
2022-12-12T21:28:59.848Z,44.25
2022-12-12T21:31:29.327Z,43.38
2022-12-12T21:33:56.829Z,45.70
2022-12-12T21:36:24.551Z,48.53
2022-12-12T21:38:52.869Z,48.08
2022-12-12T21:41:21.871Z,52.42
2022-12-12T21:43:49.141Z,47.38
2022-12-12T21:46:21.486Z,46.95
2022-12-12T21:49:11.853Z,46.40
2022-12-12T21:51:42.115Z,43.28
2022-12-12T21:54:10.090Z,42.22
2022-12-12T21:56:38.329Z,43.33
2022-12-12T21:59:05.048Z,46.78
2022-12-12T22:01:32.579Z,46.13
2022-12-12T22:04:00.233Z,42.60
2022-12-12T22:06:29.615Z,45.15
2022-12-12T22:08:57.194Z,45.65
2022-12-12T22:11:41.136Z,42.28
2022-12-12T22:14:10.945Z,47.03
2022-12-12T22:16:37.830Z,44.05
2022-12-12T22:19:10.491Z,41.22
2022-12-12T22:21:37.382Z,39.03
2022-12-12T22:24:04.974Z,39.72
2022-12-12T22:26:39.643Z,39.35
2022-12-12T22:29:09.605Z,38.80
2022-12-12T22:31:37.913Z,38.78
2022-12-12T22:34:07.189Z,38.60
2022-12-12T22:36:36.038Z,39.60
2022-12-12T22:39:03.781Z,44.33
2022-12-12T22:41:30.355Z,38.05
2022-12-12T22:43:59.336Z,39.05
2022-12-12T22:46:27.109Z,41.67
2022-12-12T22:48:55.719Z,41.90
2022-12-12T22:51:25.064Z,42.67
2022-12-12T22:53:52.207Z,40.88
2022-12-12T22:56:18.779Z,40.53
2022-12-12T22:58:45.378Z,44.42
2022-12-12T23:01:15.220Z,41.25
2022-12-12T23:03:42.710Z,41.40
2022-12-12T23:06:22.411Z,40.20
2022-12-12T23:08:58.450Z,43.92
2022-12-12T23:11:27.343Z,37.58
2022-12-12T23:13:56.596Z,38.25
2022-12-12T23:16:27.531Z,41.65
2022-12-12T23:18:54.659Z,39.38
2022-12-12T23:21:23.103Z,34.70
2022-12-12T23:23:51.173Z,39.67
2022-12-12T23:26:20.992Z,36.22
2022-12-12T23:28:48.044Z,36.25
2022-12-12T23:31:20.647Z,36.83
2022-12-12T23:33:48.158Z,38.08
2022-12-12T23:36:15.604Z,36.38
2022-12-12T23:38:42.327Z,33.72
2022-12-12T23:41:14.084Z,38.75
2022-12-12T23:43:40.871Z,32.17
2022-12-12T23:46:33.275Z,34.13
2022-12-12T23:49:03.097Z,33.60
2022-12-12T23:51:32.765Z,36.63
2022-12-12T23:54:01.710Z,32.00
2022-12-12T23:56:28.911Z,34.50
2022-12-12T23:58:56.814Z,34.58
